Time;durP1;ratioP1;P1;durP2;ratioP2;P2;SDS_P1;SDS_P2;PMS_P1;PMS_P2;Temp;Humidity;BMP_temperature;BMP_pressure;BME280_temperature;BME280_humidity;BME280_pressure;Samples;Min_cycle;Max_cycle;Signal;HPM_P1;HPM_P2
2021/09/01 00:01:46;;;;;;;6.93;3.72;;;;;;;;;;5074437;28;20581;-70
2021/09/01 00:04:12;;;;;;;8.07;3.15;;;;;;;;;;5074480;28;20052;-70
2021/09/01 00:06:38;;;;;;;6.38;3.20;;;;;;;;;;5074517;28;20060;-70
2021/09/01 00:09:05;;;;;;;5.90;3.30;;;;;;;;;;5074753;28;20023;-70
2021/09/01 00:11:31;;;;;;;5.82;3.38;;;;;;;;;;5074463;28;20025;-69
2021/09/01 00:13:57;;;;;;;6.85;3.40;;;;;;;;;;5074495;28;20044;-69
2021/09/01 00:16:27;;;;;;;6.30;2.88;;;;;;;;;;5074335;28;20615;-70
2021/09/01 00:18:57;;;;;;;5.93;2.70;;;;;;;;;;5074488;28;20484;-69
2021/09/01 00:21:23;;;;;;;5.80;3.58;;;;;;;;;;5072136;28;20096;-69
2021/09/01 00:23:50;;;;;;;5.60;3.40;;;;;;;;;;5074288;28;20028;-69
2021/09/01 00:26:16;;;;;;;6.18;3.60;;;;;;;;;;5072370;28;20535;-69
2021/09/01 00:28:42;;;;;;;6.65;3.90;;;;;;;;;;5071998;28;20534;-69
2021/09/01 00:31:08;;;;;;;6.13;3.28;;;;;;;;;;5072484;28;20119;-69
2021/09/01 00:33:34;;;;;;;8.82;3.83;;;;;;;;;;5072036;28;20082;-70
2021/09/01 00:36:00;;;;;;;5.75;3.30;;;;;;;;;;5073548;28;20550;-71
2021/09/01 00:38:26;;;;;;;6.10;3.42;;;;;;;;;;5072281;28;20070;-70
2021/09/01 00:40:56;;;;;;;6.00;3.28;;;;;;;;;;5072271;28;20115;-70
2021/09/01 00:43:25;;;;;;;6.07;3.90;;;;;;;;;;5071199;28;20046;-69
2021/09/01 00:45:52;;;;;;;6.43;3.38;;;;;;;;;;5073483;28;20024;-70
2021/09/01 00:48:18;;;;;;;5.95;3.47;;;;;;;;;;5058385;28;20075;-70
2021/09/01 00:50:48;;;;;;;4.82;3.10;;;;;;;;;;5054243;28;20032;-69
2021/09/01 00:53:15;;;;;;;5.68;3.20;;;;;;;;;;5054651;28;20476;-75
2021/09/01 00:55:44;;;;;;;5.28;3.58;;;;;;;;;;5066932;28;20040;-69
2021/09/01 00:58:11;;;;;;;5.68;3.35;;;;;;;;;;5073713;28;20495;-73
2021/09/01 01:03:16;;;;;;;6.40;3.40;;;;;;;;;;5074036;28;20491;-70
2021/09/01 01:05:43;;;;;;;6.88;3.67;;;;;;;;;;5072149;28;20086;-71
2021/09/01 01:08:09;;;;;;;5.28;3.03;;;;;;;;;;5073310;28;20478;-69
2021/09/01 01:10:35;;;;;;;5.18;3.10;;;;;;;;;;5072693;28;20407;-73
2021/09/01 01:13:01;;;;;;;5.38;3.22;;;;;;;;;;5071922;28;20048;-70
2021/09/01 01:15:27;;;;;;;5.60;3.20;;;;;;;;;;5072454;28;20108;-70
2021/09/01 01:17:53;;;;;;;5.40;3.53;;;;;;;;;;5073197;28;20480;-71
2021/09/01 01:20:19;;;;;;;5.55;3.10;;;;;;;;;;5071296;28;20071;-70
2021/09/01 01:22:45;;;;;;;4.95;3.33;;;;;;;;;;5062970;28;20021;-70
2021/09/01 01:25:11;;;;;;;6.72;3.40;;;;;;;;;;5072173;28;20028;-71
2021/09/01 01:27:44;;;;;;;6.35;3.40;;;;;;;;;;5072692;28;20540;-73
2021/09/01 01:30:15;;;;;;;5.57;3.40;;;;;;;;;;5067330;28;20488;-69
2021/09/01 01:32:42;;;;;;;6.22;3.55;;;;;;;;;;5067863;28;20025;-69
2021/09/01 01:35:08;;;;;;;5.32;3.28;;;;;;;;;;5067707;28;20107;-69
2021/09/01 01:37:34;;;;;;;19.85;3.42;;;;;;;;;;5057844;28;20101;-70
2021/09/01 01:40:00;;;;;;;5.95;3.22;;;;;;;;;;5072753;28;20029;-69
2021/09/01 01:42:26;;;;;;;5.53;3.17;;;;;;;;;;5072664;28;20115;-69
2021/09/01 01:44:52;;;;;;;6.20;3.33;;;;;;;;;;5072402;28;20024;-70
2021/09/01 01:47:18;;;;;;;6.55;3.60;;;;;;;;;;5080295;28;20067;-68
2021/09/01 01:49:44;;;;;;;5.70;3.50;;;;;;;;;;5092848;28;20016;-69
2021/09/01 01:52:10;;;;;;;4.97;3.28;;;;;;;;;;5092866;28;20093;-69
2021/09/01 01:54:37;;;;;;;20.63;4.18;;;;;;;;;;5079774;28;20388;-69
2021/09/01 01:57:03;;;;;;;11.77;3.50;;;;;;;;;;5072597;28;20495;-68
2021/09/01 01:59:29;;;;;;;10.60;3.22;;;;;;;;;;5072548;28;20029;-68
2021/09/01 02:01:55;;;;;;;7.43;4.10;;;;;;;;;;5071162;28;20131;-68
2021/09/01 02:04:21;;;;;;;7.03;3.25;;;;;;;;;;5071021;28;20365;-68
2021/09/01 02:06:47;;;;;;;8.38;3.40;;;;;;;;;;5072693;28;20122;-68
2021/09/01 02:09:13;;;;;;;7.35;3.85;;;;;;;;;;5072516;28;20020;-68
2021/09/01 02:11:39;;;;;;;11.63;3.30;;;;;;;;;;5072663;28;20025;-68
2021/09/01 02:14:05;;;;;;;8.90;3.53;;;;;;;;;;5071211;28;20028;-69
2021/09/01 02:16:31;;;;;;;8.20;3.38;;;;;;;;;;5071066;28;20034;-69
2021/09/01 02:18:57;;;;;;;5.32;3.28;;;;;;;;;;5072431;28;20028;-69
2021/09/01 02:21:23;;;;;;;6.68;3.40;;;;;;;;;;5072145;28;20035;-69
2021/09/01 02:23:49;;;;;;;6.78;3.45;;;;;;;;;;5069369;28;20051;-69
2021/09/01 02:26:16;;;;;;;7.43;3.40;;;;;;;;;;5069927;28;20153;-69
2021/09/01 02:28:42;;;;;;;6.13;3.35;;;;;;;;;;5070541;28;20340;-69
2021/09/01 02:31:08;;;;;;;9.80;3.38;;;;;;;;;;5072229;28;20020;-70
2021/09/01 02:33:34;;;;;;;8.40;3.70;;;;;;;;;;5072023;28;20295;-69
2021/09/01 02:36:00;;;;;;;10.25;3.92;;;;;;;;;;5071963;28;20032;-69
2021/09/01 02:38:26;;;;;;;9.23;3.80;;;;;;;;;;5072156;28;20028;-69
2021/09/01 02:40:52;;;;;;;10.13;3.88;;;;;;;;;;5069572;28;20033;-69
2021/09/01 02:43:18;;;;;;;8.20;3.83;;;;;;;;;;5071504;28;20078;-69
2021/09/01 02:45:44;;;;;;;9.93;3.70;;;;;;;;;;5071860;28;20103;-70
2021/09/01 02:48:10;;;;;;;5.82;3.63;;;;;;;;;;5071868;28;20495;-70
2021/09/01 02:50:36;;;;;;;5.55;3.60;;;;;;;;;;5072004;28;20577;-68
2021/09/01 02:53:02;;;;;;;6.43;3.67;;;;;;;;;;5072018;28;20032;-68
2021/09/01 02:55:28;;;;;;;7.80;3.78;;;;;;;;;;5071871;28;20054;-68
2021/09/01 02:57:54;;;;;;;6.68;3.83;;;;;;;;;;5071846;28;20031;-68
2021/09/01 03:00:20;;;;;;;8.88;3.80;;;;;;;;;;5071789;28;20063;-68
2021/09/01 03:02:46;;;;;;;6.30;4.05;;;;;;;;;;5071975;28;20037;-69
2021/09/01 03:05:12;;;;;;;7.50;4.28;;;;;;;;;;5071939;28;20052;-68
2021/09/01 03:07:38;;;;;;;7.05;3.92;;;;;;;;;;5071916;28;20532;-68
2021/09/01 03:10:05;;;;;;;5.38;3.50;;;;;;;;;;5070477;28;20017;-69
2021/09/01 03:12:31;;;;;;;9.13;4.10;;;;;;;;;;5070646;28;20017;-68
2021/09/01 03:14:57;;;;;;;7.07;4.05;;;;;;;;;;5071580;28;20025;-69
2021/09/01 03:17:23;;;;;;;6.88;4.00;;;;;;;;;;5070452;28;20411;-68
2021/09/01 03:19:49;;;;;;;7.97;3.92;;;;;;;;;;5071686;28;20083;-69
2021/09/01 03:22:15;;;;;;;6.72;3.97;;;;;;;;;;5071615;28;20032;-69
2021/09/01 03:24:41;;;;;;;7.07;4.15;;;;;;;;;;5071657;28;20160;-68
2021/09/01 03:27:07;;;;;;;7.47;3.65;;;;;;;;;;5071862;28;20060;-68
2021/09/01 03:29:33;;;;;;;6.22;4.03;;;;;;;;;;5071649;28;20027;-68
2021/09/01 03:31:59;;;;;;;5.75;3.95;;;;;;;;;;5071505;28;20506;-69
2021/09/01 03:34:25;;;;;;;6.43;3.95;;;;;;;;;;5071397;28;20024;-68
2021/09/01 03:36:51;;;;;;;8.02;3.95;;;;;;;;;;5071736;28;20151;-68
2021/09/01 03:39:17;;;;;;;6.75;4.15;;;;;;;;;;5071617;28;20020;-69
2021/09/01 03:41:43;;;;;;;7.43;4.00;;;;;;;;;;5067923;28;20064;-69
2021/09/01 03:44:09;;;;;;;9.68;4.20;;;;;;;;;;5070854;28;20507;-69
2021/09/01 03:46:35;;;;;;;6.38;4.05;;;;;;;;;;5071180;28;20090;-68
2021/09/01 03:49:01;;;;;;;7.13;3.85;;;;;;;;;;5071260;28;20071;-68
2021/09/01 03:51:27;;;;;;;7.72;4.35;;;;;;;;;;5071353;28;20017;-69
2021/09/01 03:53:54;;;;;;;6.82;3.90;;;;;;;;;;5071387;28;20028;-69
2021/09/01 03:56:20;;;;;;;6.80;4.25;;;;;;;;;;5086585;28;20820;-69
2021/09/01 03:58:46;;;;;;;6.82;4.30;;;;;;;;;;5065822;28;20660;-69
2021/09/01 04:01:12;;;;;;;7.88;4.68;;;;;;;;;;5072001;28;20063;-70
2021/09/01 04:03:38;;;;;;;9.68;4.72;;;;;;;;;;5089781;28;20027;-69
2021/09/01 04:06:05;;;;;;;7.90;4.65;;;;;;;;;;5074611;28;20024;-70
2021/09/01 04:08:31;;;;;;;6.47;4.18;;;;;;;;;;5074675;28;20024;-70
2021/09/01 04:10:57;;;;;;;8.20;4.32;;;;;;;;;;5074685;28;20107;-72
2021/09/01 04:13:23;;;;;;;6.25;4.07;;;;;;;;;;5072263;28;20079;-69
2021/09/01 04:15:49;;;;;;;7.55;4.25;;;;;;;;;;5074149;28;20024;-71
2021/09/01 04:18:15;;;;;;;7.05;4.55;;;;;;;;;;5074336;28;20077;-70
2021/09/01 04:20:41;;;;;;;7.95;4.65;;;;;;;;;;5074485;28;20391;-70
2021/09/01 04:23:07;;;;;;;7.00;4.30;;;;;;;;;;5074327;28;20024;-70
2021/09/01 04:25:33;;;;;;;7.70;4.88;;;;;;;;;;5074354;28;20496;-69
2021/09/01 04:27:59;;;;;;;10.52;4.75;;;;;;;;;;5074381;28;20029;-70
2021/09/01 04:30:25;;;;;;;9.48;4.75;;;;;;;;;;5071724;28;20021;-68
2021/09/01 04:32:51;;;;;;;12.45;4.70;;;;;;;;;;5074045;28;20024;-69
2021/09/01 04:35:18;;;;;;;8.38;4.68;;;;;;;;;;5073846;28;20016;-69
2021/09/01 04:37:44;;;;;;;8.18;5.00;;;;;;;;;;5074258;28;20025;-69
2021/09/01 04:40:10;;;;;;;8.45;4.88;;;;;;;;;;5074183;28;20040;-68
2021/09/01 04:42:36;;;;;;;9.68;4.43;;;;;;;;;;5073701;28;20032;-69
2021/09/01 04:45:03;;;;;;;7.20;4.65;;;;;;;;;;5072533;28;20020;-69
2021/09/01 04:47:29;;;;;;;7.75;4.40;;;;;;;;;;5073924;28;20035;-68
2021/09/01 04:49:55;;;;;;;8.00;4.68;;;;;;;;;;5073769;28;20025;-69
2021/09/01 04:52:21;;;;;;;11.80;4.90;;;;;;;;;;5073924;28;20076;-68
2021/09/01 04:54:47;;;;;;;8.23;4.57;;;;;;;;;;5074002;28;20040;-69
2021/09/01 04:57:13;;;;;;;10.65;4.80;;;;;;;;;;5072372;28;20037;-69
2021/09/01 04:59:41;;;;;;;7.45;4.40;;;;;;;;;;5074261;28;20048;-69
2021/09/01 05:02:07;;;;;;;7.38;4.25;;;;;;;;;;5073455;28;20043;-69
2021/09/01 05:04:33;;;;;;;9.68;5.05;;;;;;;;;;5073772;28;20028;-69
2021/09/01 05:06:59;;;;;;;8.02;4.13;;;;;;;;;;5072440;28;20476;-70
2021/09/01 05:09:25;;;;;;;8.60;4.72;;;;;;;;;;5073592;28;20098;-72
2021/09/01 05:11:51;;;;;;;7.82;4.60;;;;;;;;;;5073420;28;20028;-71
2021/09/01 05:14:17;;;;;;;16.20;5.47;;;;;;;;;;5072083;28;20398;-71
2021/09/01 05:16:43;;;;;;;7.40;4.50;;;;;;;;;;5072095;28;20384;-69
2021/09/01 05:19:11;;;;;;;7.90;4.53;;;;;;;;;;5073248;28;20064;-72
2021/09/01 05:21:40;;;;;;;9.23;4.45;;;;;;;;;;5073024;28;20056;-68
2021/09/01 05:24:06;;;;;;;9.82;4.82;;;;;;;;;;5073333;28;20016;-68
2021/09/01 05:26:33;;;;;;;9.40;4.97;;;;;;;;;;5073212;28;20035;-69
2021/09/01 05:29:03;;;;;;;10.27;4.65;;;;;;;;;;5073141;28;20024;-68
2021/09/01 05:31:32;;;;;;;8.63;4.82;;;;;;;;;;5072937;28;20031;-68
2021/09/01 05:34:00;;;;;;;10.55;4.50;;;;;;;;;;5071637;28;20048;-67
2021/09/01 05:36:26;;;;;;;8.38;4.22;;;;;;;;;;5073068;28;20029;-68
2021/09/01 05:38:53;;;;;;;9.93;4.55;;;;;;;;;;5071425;28;20025;-71
2021/09/01 05:41:19;;;;;;;7.82;4.20;;;;;;;;;;5071432;28;20025;-69
2021/09/01 05:43:46;;;;;;;7.70;4.60;;;;;;;;;;5072816;28;20051;-68
2021/09/01 05:46:14;;;;;;;7.28;4.28;;;;;;;;;;5072680;28;20024;-71
2021/09/01 05:48:40;;;;;;;8.10;5.22;;;;;;;;;;5071396;28;20086;-68
2021/09/01 05:51:07;;;;;;;8.95;4.57;;;;;;;;;;5072744;28;20028;-68
2021/09/01 05:53:33;;;;;;;6.90;4.05;;;;;;;;;;5072538;28;20017;-69
2021/09/01 05:56:04;;;;;;;10.15;4.90;;;;;;;;;;5072483;28;20076;-68
2021/09/01 05:58:31;;;;;;;8.20;4.88;;;;;;;;;;5072595;28;20025;-68
2021/09/01 06:00:58;;;;;;;7.85;4.57;;;;;;;;;;5072364;28;20033;-71
2021/09/01 06:03:25;;;;;;;9.23;5.13;;;;;;;;;;5072496;28;20464;-70
2021/09/01 06:05:53;;;;;;;10.07;4.47;;;;;;;;;;5072365;28;20024;-69
2021/09/01 06:08:21;;;;;;;7.70;4.35;;;;;;;;;;5072366;28;20017;-68
2021/09/01 06:10:48;;;;;;;10.52;4.82;;;;;;;;;;5072380;28;20409;-70
2021/09/01 06:13:15;;;;;;;10.13;4.65;;;;;;;;;;5069494;28;20021;-69
2021/09/01 06:15:42;;;;;;;9.48;4.82;;;;;;;;;;5072235;28;20073;-70
2021/09/01 06:18:08;;;;;;;8.35;4.80;;;;;;;;;;5072404;28;20032;-69
2021/09/01 06:20:35;;;;;;;9.50;4.80;;;;;;;;;;5072113;28;20075;-70
2021/09/01 06:23:02;;;;;;;8.02;4.38;;;;;;;;;;5071694;28;20089;-71
2021/09/01 06:25:28;;;;;;;7.95;4.80;;;;;;;;;;5070665;28;20142;-72
2021/09/01 06:27:55;;;;;;;9.45;4.97;;;;;;;;;;5072297;28;20047;-72
2021/09/01 06:30:22;;;;;;;7.25;4.68;;;;;;;;;;5070864;28;20021;-69
2021/09/01 06:32:48;;;;;;;7.28;4.05;;;;;;;;;;5072225;28;20033;-70
2021/09/01 06:35:15;;;;;;;7.70;4.60;;;;;;;;;;5072133;28;20020;-70
2021/09/01 06:37:42;;;;;;;11.65;4.53;;;;;;;;;;5070845;28;20394;-69
2021/09/01 06:40:08;;;;;;;10.93;5.00;;;;;;;;;;5071905;28;20013;-69
2021/09/01 06:42:34;;;;;;;7.70;4.30;;;;;;;;;;5071690;28;20029;-70
2021/09/01 06:45:01;;;;;;;9.38;4.68;;;;;;;;;;5071811;28;20019;-70
2021/09/01 06:47:27;;;;;;;7.32;4.47;;;;;;;;;;5070519;28;20017;-69
2021/09/01 06:49:53;;;;;;;10.52;4.60;;;;;;;;;;5071697;28;20028;-70
2021/09/01 06:52:19;;;;;;;8.77;4.50;;;;;;;;;;5071871;28;20068;-69
2021/09/01 06:54:45;;;;;;;10.30;4.82;;;;;;;;;;5071893;28;20564;-69
2021/09/01 06:57:11;;;;;;;9.75;4.93;;;;;;;;;;5071803;28;20127;-69
2021/09/01 06:59:37;;;;;;;8.88;4.88;;;;;;;;;;5071950;28;20029;-70
2021/09/01 07:02:03;;;;;;;20.00;5.43;;;;;;;;;;5071527;28;20075;-71
2021/09/01 07:04:29;;;;;;;9.18;4.15;;;;;;;;;;5072331;28;20024;-71
2021/09/01 07:06:55;;;;;;;6.57;3.80;;;;;;;;;;5071704;28;20035;-71
2021/09/01 07:09:21;;;;;;;17.92;4.35;;;;;;;;;;5071360;28;20467;-69
2021/09/01 07:11:47;;;;;;;7.93;3.90;;;;;;;;;;5070308;28;20033;-71
2021/09/01 07:14:13;;;;;;;9.63;3.88;;;;;;;;;;5070208;28;20066;-68
2021/09/01 07:16:39;;;;;;;7.25;3.47;;;;;;;;;;5071593;28;20033;-71
2021/09/01 07:19:05;;;;;;;99.13;8.32;;;;;;;;;;5070289;28;20089;-69
2021/09/01 07:21:31;;;;;;;13.63;4.47;;;;;;;;;;5071379;28;20099;-69
2021/09/01 07:24:00;;;;;;;19.48;4.72;;;;;;;;;;5066322;28;20056;-70
2021/09/01 07:26:26;;;;;;;22.38;4.95;;;;;;;;;;5051578;28;20387;-69
2021/09/01 07:28:52;;;;;;;9.82;4.25;;;;;;;;;;5050297;28;20167;-69
2021/09/01 07:31:18;;;;;;;11.20;4.32;;;;;;;;;;5051372;28;20506;-71
2021/09/01 07:33:44;;;;;;;7.03;3.70;;;;;;;;;;5051334;28;20113;-70
2021/09/01 07:36:10;;;;;;;8.60;4.32;;;;;;;;;;5051581;28;20040;-70
2021/09/01 07:38:36;;;;;;;10.50;3.83;;;;;;;;;;5055391;28;20040;-69
2021/09/01 07:41:02;;;;;;;9.88;4.03;;;;;;;;;;5055381;28;20025;-70
2021/09/01 07:43:29;;;;;;;10.63;4.63;;;;;;;;;;5054919;28;20032;-71
2021/09/01 07:45:55;;;;;;;12.63;3.60;;;;;;;;;;5055193;28;20488;-70
2021/09/01 07:48:21;;;;;;;10.70;3.80;;;;;;;;;;5055307;28;20484;-69
2021/09/01 07:50:48;;;;;;;7.45;4.07;;;;;;;;;;5055240;28;20021;-70
2021/09/01 07:53:14;;;;;;;10.48;4.05;;;;;;;;;;5055100;28;20461;-68
2021/09/01 07:55:40;;;;;;;10.95;3.85;;;;;;;;;;5054876;28;20052;-69
2021/09/01 07:58:06;;;;;;;7.57;3.72;;;;;;;;;;5063105;28;20427;-69
2021/09/01 08:00:32;;;;;;;7.25;4.03;;;;;;;;;;5073614;28;20029;-69
2021/09/01 08:02:58;;;;;;;6.65;3.70;;;;;;;;;;5074565;28;20020;-70
2021/09/01 08:05:24;;;;;;;10.90;4.25;;;;;;;;;;5071316;28;21232;-70
2021/09/01 08:07:50;;;;;;;8.80;4.03;;;;;;;;;;5070554;28;20024;-70
2021/09/01 08:10:16;;;;;;;10.60;4.00;;;;;;;;;;5074293;28;20059;-72
2021/09/01 08:12:43;;;;;;;9.40;4.20;;;;;;;;;;5074783;28;20027;-68
2021/09/01 08:15:10;;;;;;;9.00;3.75;;;;;;;;;;5063864;28;20029;-69
2021/09/01 08:17:36;;;;;;;8.00;3.85;;;;;;;;;;5054615;28;20080;-69
2021/09/01 08:20:03;;;;;;;8.52;4.78;;;;;;;;;;5054714;28;20013;-69
2021/09/01 08:22:29;;;;;;;9.98;4.32;;;;;;;;;;5054195;28;20403;-69
2021/09/01 08:24:55;;;;;;;7.35;4.53;;;;;;;;;;5074771;28;20024;-69
2021/09/01 08:27:21;;;;;;;6.60;3.70;;;;;;;;;;5074469;28;20025;-69
2021/09/01 08:29:48;;;;;;;6.22;3.47;;;;;;;;;;5074409;28;20078;-68
2021/09/01 08:32:14;;;;;;;9.02;3.72;;;;;;;;;;5073067;28;20166;-68
2021/09/01 08:34:40;;;;;;;6.30;3.20;;;;;;;;;;5073111;28;20051;-69
2021/09/01 08:37:06;;;;;;;6.70;3.60;;;;;;;;;;5074363;28;20025;-69
2021/09/01 08:39:33;;;;;;;7.38;3.63;;;;;;;;;;5073148;28;20107;-69
2021/09/01 08:41:59;;;;;;;8.13;3.78;;;;;;;;;;5073969;28;20082;-70
2021/09/01 08:44:25;;;;;;;7.07;3.50;;;;;;;;;;5073785;28;20082;-70
2021/09/01 08:46:51;;;;;;;7.28;3.70;;;;;;;;;;5073607;28;20035;-70
2021/09/01 08:49:20;;;;;;;6.47;3.42;;;;;;;;;;5054707;28;20048;-68
2021/09/01 08:51:49;;;;;;;6.10;3.28;;;;;;;;;;5054125;28;20071;-69
2021/09/01 08:54:15;;;;;;;6.38;3.33;;;;;;;;;;5052741;28;20033;-69
2021/09/01 08:56:42;;;;;;;6.20;3.30;;;;;;;;;;5053357;28;20052;-70
2021/09/01 08:59:08;;;;;;;5.18;3.10;;;;;;;;;;5055244;28;20095;-71
2021/09/01 09:01:43;;;;;;;6.53;3.88;;;;;;;;;;5073481;28;20033;-70
2021/09/01 09:04:19;;;;;;;7.28;3.60;;;;;;;;;;5073777;28;20047;-69
2021/09/01 09:06:50;;;;;;;9.00;3.67;;;;;;;;;;5073823;28;20104;-68
2021/09/01 09:09:18;;;;;;;7.43;3.22;;;;;;;;;;5072448;28;20593;-69
2021/09/01 09:11:44;;;;;;;7.43;3.83;;;;;;;;;;5073774;28;20024;-69
2021/09/01 09:14:25;;;;;;;6.88;3.60;;;;;;;;;;5072109;28;20025;-68
2021/09/01 09:17:08;;;;;;;8.70;3.85;;;;;;;;;;5073459;28;20025;-69
2021/09/01 09:19:42;;;;;;;6.07;3.30;;;;;;;;;;5073424;28;20431;-70
2021/09/01 09:22:08;;;;;;;7.07;3.47;;;;;;;;;;5072760;28;20024;-70
2021/09/01 09:24:35;;;;;;;6.28;3.35;;;;;;;;;;5069446;28;20024;-70
2021/09/01 09:27:01;;;;;;;6.15;3.25;;;;;;;;;;5072684;28;20072;-69
2021/09/01 09:29:30;;;;;;;6.90;3.28;;;;;;;;;;5072878;28;20028;-69
2021/09/01 09:31:59;;;;;;;8.90;3.42;;;;;;;;;;5072975;28;20058;-71
2021/09/01 09:34:33;;;;;;;6.72;3.33;;;;;;;;;;5072965;28;20036;-70
2021/09/01 09:37:00;;;;;;;6.28;2.97;;;;;;;;;;5072455;28;20468;-69
2021/09/01 09:39:36;;;;;;;6.75;3.00;;;;;;;;;;5072660;28;20103;-69
2021/09/01 09:42:02;;;;;;;6.40;3.30;;;;;;;;;;5066665;28;20032;-69
2021/09/01 09:44:28;;;;;;;5.80;2.70;;;;;;;;;;5072645;28;20024;-69
2021/09/01 09:46:55;;;;;;;6.50;3.40;;;;;;;;;;5071333;28;20032;-69
2021/09/01 09:49:28;;;;;;;5.80;3.03;;;;;;;;;;5054793;28;20021;-69
2021/09/01 09:51:54;;;;;;;7.85;3.35;;;;;;;;;;5072474;28;20021;-70
2021/09/01 09:54:21;;;;;;;7.05;3.47;;;;;;;;;;5072464;28;20020;-69
2021/09/01 09:56:48;;;;;;;9.57;3.25;;;;;;;;;;5072384;28;20063;-69
2021/09/01 09:59:17;;;;;;;9.63;3.60;;;;;;;;;;5069567;28;20419;-69
2021/09/01 10:01:44;;;;;;;6.68;3.63;;;;;;;;;;5071137;28;20636;-69
2021/09/01 10:04:10;;;;;;;5.78;2.88;;;;;;;;;;5072026;28;20020;-69
2021/09/01 10:06:36;;;;;;;4.95;2.97;;;;;;;;;;5072413;28;20066;-70
2021/09/01 10:09:04;;;;;;;7.32;3.17;;;;;;;;;;5072470;28;20048;-69
2021/09/01 10:11:32;;;;;;;6.40;2.72;;;;;;;;;;5070766;28;20115;-70
2021/09/01 10:13:58;;;;;;;6.57;3.40;;;;;;;;;;5071964;28;20015;-68
2021/09/01 10:16:30;;;;;;;5.25;2.95;;;;;;;;;;5058387;28;20033;-69
2021/09/01 10:18:59;;;;;;;6.82;3.10;;;;;;;;;;5074488;28;20356;-68
2021/09/01 10:21:26;;;;;;;7.00;3.33;;;;;;;;;;5072326;28;20064;-68
2021/09/01 10:23:52;;;;;;;7.03;3.13;;;;;;;;;;5072131;28;20021;-68
2021/09/01 10:26:26;;;;;;;6.03;3.28;;;;;;;;;;5071912;28;20387;-69
2021/09/01 10:28:52;;;;;;;6.45;3.35;;;;;;;;;;5072042;28;20024;-68
2021/09/01 10:31:18;;;;;;;7.03;3.58;;;;;;;;;;5072096;28;20025;-68
2021/09/01 10:33:52;;;;;;;8.13;3.20;;;;;;;;;;5056376;28;20029;-68
2021/09/01 10:36:26;;;;;;;6.07;2.97;;;;;;;;;;5051843;28;20060;-68
2021/09/01 10:38:52;;;;;;;6.20;2.85;;;;;;;;;;5067393;28;20025;-68
2021/09/01 10:41:28;;;;;;;5.15;2.88;;;;;;;;;;5051684;28;20036;-69
2021/09/01 10:44:07;;;;;;;6.28;2.85;;;;;;;;;;5051876;28;20500;-68
2021/09/01 10:46:51;;;;;;;5.75;3.00;;;;;;;;;;5067234;28;20055;-70
2021/09/01 10:49:37;;;;;;;5.43;2.72;;;;;;;;;;5067596;28;20021;-68
2021/09/01 10:52:04;;;;;;;5.22;2.90;;;;;;;;;;5066802;28;20017;-68
2021/09/01 10:54:30;;;;;;;8.15;3.25;;;;;;;;;;5051574;28;20372;-72
2021/09/01 10:56:57;;;;;;;6.80;3.05;;;;;;;;;;5066875;28;20052;-69
2021/09/01 10:59:25;;;;;;;6.38;3.22;;;;;;;;;;5065676;28;20063;-71
2021/09/01 11:02:10;;;;;;;7.68;3.55;;;;;;;;;;5051537;28;20542;-69
2021/09/01 11:04:45;;;;;;;8.75;3.67;;;;;;;;;;5051432;28;20046;-69
2021/09/01 11:07:11;;;;;;;8.82;3.67;;;;;;;;;;5062244;28;20472;-70
2021/09/01 11:09:37;;;;;;;9.40;3.60;;;;;;;;;;5072029;28;20025;-68
2021/09/01 11:12:04;;;;;;;7.25;3.50;;;;;;;;;;5075781;28;20432;-68
2021/09/01 11:14:32;;;;;;;7.30;3.60;;;;;;;;;;5075786;28;20082;-68
2021/09/01 11:16:58;;;;;;;6.88;3.75;;;;;;;;;;5074456;28;20028;-67
2021/09/01 11:19:24;;;;;;;7.90;3.78;;;;;;;;;;5075326;28;20028;-68
2021/09/01 11:21:51;;;;;;;6.15;3.38;;;;;;;;;;5075350;28;20466;-68
2021/09/01 11:24:18;;;;;;;7.20;3.63;;;;;;;;;;5063767;28;20014;-68
2021/09/01 11:26:45;;;;;;;9.93;3.05;;;;;;;;;;5055494;28;20017;-68
2021/09/01 11:29:11;;;;;;;6.90;3.15;;;;;;;;;;5071083;28;20025;-68
2021/09/01 11:31:43;;;;;;;5.88;2.90;;;;;;;;;;5055264;28;20021;-68
2021/09/01 11:34:10;;;;;;;8.70;3.70;;;;;;;;;;5070777;28;20102;-68
2021/09/01 11:36:37;;;;;;;7.38;3.15;;;;;;;;;;5055198;28;20166;-68
2021/09/01 11:39:03;;;;;;;7.60;3.45;;;;;;;;;;5055201;28;20053;-68
2021/09/01 11:41:29;;;;;;;7.90;3.10;;;;;;;;;;5055596;28;20087;-68
2021/09/01 11:43:56;;;;;;;6.18;3.38;;;;;;;;;;5055010;28;20029;-68
2021/09/01 11:46:22;;;;;;;6.32;3.42;;;;;;;;;;5054954;28;20064;-66
2021/09/01 11:48:48;;;;;;;5.05;2.88;;;;;;;;;;5054746;28;20024;-67
2021/09/01 11:51:14;;;;;;;7.30;3.42;;;;;;;;;;5070194;28;20021;-68
2021/09/01 11:53:41;;;;;;;9.77;3.33;;;;;;;;;;5054525;28;20100;-68
2021/09/01 11:56:08;;;;;;;8.13;3.42;;;;;;;;;;5054331;28;20081;-68
2021/09/01 11:58:34;;;;;;;8.73;3.30;;;;;;;;;;5056745;28;20025;-69
2021/09/01 12:01:07;;;;;;;8.55;3.50;;;;;;;;;;5074388;28;20033;-70
2021/09/01 12:03:33;;;;;;;8.25;3.10;;;;;;;;;;5074585;28;20032;-69
2021/09/01 12:06:06;;;;;;;6.75;3.38;;;;;;;;;;5073364;28;20031;-68
2021/09/01 12:08:40;;;;;;;6.05;2.80;;;;;;;;;;5073253;28;20119;-67
2021/09/01 12:11:06;;;;;;;6.13;3.30;;;;;;;;;;5073447;28;20048;-68
2021/09/01 12:13:40;;;;;;;7.82;2.78;;;;;;;;;;5073170;28;20399;-69
2021/09/01 12:16:06;;;;;;;6.07;3.28;;;;;;;;;;5073749;28;20572;-69
2021/09/01 12:18:52;;;;;;;7.53;3.50;;;;;;;;;;5073185;28;20025;-68
2021/09/01 12:21:18;;;;;;;5.90;3.70;;;;;;;;;;5072237;28;20511;-68
2021/09/01 12:23:45;;;;;;;6.63;4.10;;;;;;;;;;5074422;28;20104;-69
2021/09/01 12:26:13;;;;;;;6.07;3.20;;;;;;;;;;5072916;28;20021;-68
2021/09/01 12:28:43;;;;;;;9.18;3.92;;;;;;;;;;5074328;28;20023;-67
2021/09/01 12:31:18;;;;;;;5.80;3.28;;;;;;;;;;5073342;28;20108;-68
2021/09/01 12:33:44;;;;;;;5.47;3.13;;;;;;;;;;5074059;28;20096;-67
2021/09/01 12:36:10;;;;;;;6.28;3.10;;;;;;;;;;5073948;28;20032;-67
2021/09/01 12:38:36;;;;;;;6.53;2.83;;;;;;;;;;5072726;28;20031;-66
2021/09/01 12:41:18;;;;;;;5.15;2.95;;;;;;;;;;5073718;28;20028;-68
2021/09/01 12:43:44;;;;;;;6.55;2.72;;;;;;;;;;5073973;28;20028;-67
2021/09/01 12:46:10;;;;;;;8.30;2.75;;;;;;;;;;5073876;28;20078;-68
2021/09/01 12:48:42;;;;;;;6.22;2.55;;;;;;;;;;5054912;28;20031;-69
2021/09/01 12:51:11;;;;;;;5.65;2.72;;;;;;;;;;5054009;28;20379;-67
2021/09/01 12:53:37;;;;;;;7.38;3.00;;;;;;;;;;5069029;28;20488;-71
2021/09/01 12:56:04;;;;;;;4.85;2.50;;;;;;;;;;5068999;28;20559;-68
2021/09/01 12:58:30;;;;;;;3.70;2.10;;;;;;;;;;5055164;28;20021;-69
2021/09/01 13:00:56;;;;;;;4.93;2.58;;;;;;;;;;5073335;28;20472;-68
2021/09/01 13:03:22;;;;;;;6.10;2.95;;;;;;;;;;5073015;28;20479;-68
2021/09/01 13:05:48;;;;;;;5.40;2.70;;;;;;;;;;5066005;28;20013;-68
2021/09/01 13:08:15;;;;;;;4.38;2.42;;;;;;;;;;5071824;28;20048;-69
2021/09/01 13:10:41;;;;;;;5.38;2.22;;;;;;;;;;5072948;28;20476;-67
2021/09/01 13:13:07;;;;;;;7.90;2.80;;;;;;;;;;5073556;28;20039;-68
2021/09/01 13:15:35;;;;;;;5.80;2.95;;;;;;;;;;5071912;28;20021;-68
2021/09/01 13:18:01;;;;;;;6.97;2.67;;;;;;;;;;5073318;28;20052;-69
2021/09/01 13:20:27;;;;;;;5.82;2.60;;;;;;;;;;5073199;28;20128;-68
2021/09/01 13:22:54;;;;;;;6.93;2.58;;;;;;;;;;5064567;28;20499;-68
2021/09/01 13:25:21;;;;;;;4.03;2.35;;;;;;;;;;5053122;28;20025;-67
2021/09/01 13:27:47;;;;;;;3.63;2.00;;;;;;;;;;5053141;28;20017;-68
2021/09/01 13:30:14;;;;;;;5.95;2.67;;;;;;;;;;5053121;28;20016;-68
2021/09/01 13:32:40;;;;;;;4.82;2.50;;;;;;;;;;5052786;28;20108;-69
2021/09/01 13:35:07;;;;;;;6.07;2.63;;;;;;;;;;5052302;28;20044;-68
2021/09/01 13:37:33;;;;;;;4.20;2.13;;;;;;;;;;5052936;28;20021;-69
2021/09/01 13:39:59;;;;;;;4.78;2.20;;;;;;;;;;5053559;28;20027;-67
2021/09/01 13:42:25;;;;;;;4.60;1.95;;;;;;;;;;5052633;28;20097;-69
2021/09/01 13:44:51;;;;;;;4.25;2.30;;;;;;;;;;5068264;28;20021;-67
2021/09/01 13:47:17;;;;;;;5.72;2.35;;;;;;;;;;5068111;28;20028;-68
2021/09/01 13:49:43;;;;;;;4.82;2.70;;;;;;;;;;5068281;28;20064;-68
2021/09/01 13:52:09;;;;;;;6.60;2.13;;;;;;;;;;5052543;28;20100;-68
2021/09/01 13:54:36;;;;;;;4.07;1.83;;;;;;;;;;5052692;28;20464;-67
2021/09/01 13:57:04;;;;;;;5.22;2.05;;;;;;;;;;5053067;28;20052;-69
2021/09/01 13:59:31;;;;;;;4.95;2.38;;;;;;;;;;5068414;28;20025;-67
2021/09/01 14:01:57;;;;;;;4.95;2.10;;;;;;;;;;5072011;28;20028;-69
2021/09/01 14:04:23;;;;;;;4.80;2.55;;;;;;;;;;5072435;28;20032;-67
2021/09/01 14:06:50;;;;;;;7.75;2.72;;;;;;;;;;5072634;28;20021;-67
2021/09/01 14:09:16;;;;;;;7.15;2.47;;;;;;;;;;5072482;28;20025;-67
2021/09/01 14:11:44;;;;;;;4.45;2.40;;;;;;;;;;5072368;28;20021;-67
2021/09/01 14:14:10;;;;;;;6.55;2.55;;;;;;;;;;5061527;28;20112;-67
2021/09/01 14:16:36;;;;;;;4.70;2.13;;;;;;;;;;5052253;28;20514;-68
2021/09/01 14:19:03;;;;;;;4.25;1.83;;;;;;;;;;5052411;28;20036;-67
2021/09/01 14:21:29;;;;;;;5.30;2.53;;;;;;;;;;5052027;28;20029;-67
2021/09/01 14:23:55;;;;;;;5.70;2.55;;;;;;;;;;5052119;28;20025;-67
2021/09/01 14:26:22;;;;;;;5.22;2.40;;;;;;;;;;5064888;28;20036;-67
2021/09/01 14:28:48;;;;;;;4.32;2.20;;;;;;;;;;5071976;28;20055;-68
2021/09/01 14:31:14;;;;;;;4.90;2.40;;;;;;;;;;5070097;28;20135;-67
2021/09/01 14:33:40;;;;;;;5.43;2.40;;;;;;;;;;5072156;28;20528;-67
2021/09/01 14:36:07;;;;;;;6.10;2.20;;;;;;;;;;5071616;28;20033;-68
2021/09/01 14:38:33;;;;;;;5.82;2.40;;;;;;;;;;5071952;28;20021;-68
2021/09/01 14:40:59;;;;;;;4.97;2.40;;;;;;;;;;5072085;28;20115;-68
2021/09/01 14:43:26;;;;;;;4.47;2.28;;;;;;;;;;5071848;28;20127;-67